Terminal Aerodrome Forecast
Issued by NWS Grand Junction, CO

Home | Current Version | Previous Version | Text Only | Print | Product List | Glossary On
Versions: 1 2 3 4 5 6 7 8 9 10 11 12 13 14 15 16 17 18 19 20 21 22 23 24 25 26 27 28 29 30 31 32 33 34 35
000
FTUS45 KGJT 301735
TAFGJT
TAF
KGJT 301735Z 3018/0118 15007KT P6SM SCT050 BKN100
     FM302000 31007KT P6SM SCT070 BKN150
     FM010200 08005KT P6SM FEW080 SCT150
     FM010500 11007KT P6SM SCT150
     FM011200 11007KT P6SM SCT090 BKN120=

USA.gov is the U.S. government's official web portal to all federal, state and local government web resources and services.